Time;durP1;ratioP1;P1;durP2;ratioP2;P2;SDS_P1;SDS_P2;PMS_P1;PMS_P2;Temp;Humidity;BMP_temperature;BMP_pressure;BME280_temperature;BME280_humidity;BME280_pressure;Samples;Min_cycle;Max_cycle;Signal;HPM_P1;HPM_P2
2021/05/01 00:01:44;;;;;;;16.33;5.37;;;7.80;99.90;;;;;;5025584;28;20207;-79
2021/05/01 00:04:10;;;;;;;11.87;4.90;;;7.80;99.90;;;;;;5025151;28;20779;-76
2021/05/01 00:06:37;;;;;;;10.50;4.77;;;7.80;99.90;;;;;;5025677;28;20341;-85
2021/05/01 00:09:04;;;;;;;8.57;4.40;;;7.80;99.90;;;;;;5026176;28;20265;-86
2021/05/01 00:11:30;;;;;;;11.77;4.77;;;7.80;99.90;;;;;;5025393;28;20214;-76
2021/05/01 00:13:58;;;;;;;13.57;5.43;;;7.80;99.90;;;;;;5024955;28;20203;-77
2021/05/01 00:16:24;;;;;;;13.83;4.77;;;7.80;99.90;;;;;;5025040;28;20785;-75
2021/05/01 00:18:52;;;;;;;15.03;5.13;;;7.80;99.90;;;;;;5024458;28;20202;-79
2021/05/01 00:21:19;;;;;;;10.90;4.87;;;7.80;99.90;;;;;;5024544;28;20217;-81
2021/05/01 00:23:45;;;;;;;9.37;4.60;;;7.80;99.90;;;;;;5026400;28;20222;-79
2021/05/01 00:26:12;;;;;;;12.20;4.87;;;7.80;99.90;;;;;;5028253;28;20213;-78
2021/05/01 00:28:39;;;;;;;14.60;5.40;;;7.80;99.90;;;;;;5023821;28;20210;-85
2021/05/01 00:31:06;;;;;;;9.27;4.93;;;7.80;99.90;;;;;;5024521;28;20198;-77
2021/05/01 00:33:32;;;;;;;11.77;4.67;;;7.70;99.90;;;;;;5024012;28;20206;-76
2021/05/01 00:35:59;;;;;;;13.27;5.93;;;7.70;99.90;;;;;;5024104;28;20264;-80
2021/05/01 00:38:26;;;;;;;11.57;5.87;;;7.60;99.90;;;;;;5025592;28;20257;-86
2021/05/01 00:40:52;;;;;;;10.57;6.97;;;7.60;99.90;;;;;;5030337;28;20209;-84
2021/05/01 00:43:19;;;;;;;12.67;7.33;;;7.60;99.90;;;;;;5029824;28;20202;-86
2021/05/01 00:45:45;;;;;;;10.73;5.97;;;7.50;99.90;;;;;;5047548;28;20233;-84
2021/05/01 00:48:11;;;;;;;10.73;6.87;;;7.50;99.90;;;;;;5047053;28;20205;-76
2021/05/01 00:50:38;;;;;;;13.33;6.83;;;7.50;99.90;;;;;;5037833;28;20216;-76
2021/05/01 00:53:06;;;;;;;10.07;6.80;;;7.50;99.90;;;;;;5024179;28;20199;-83
2021/05/01 00:55:32;;;;;;;13.17;6.33;;;7.40;99.90;;;;;;5024082;28;20263;-79
2021/05/01 00:57:59;;;;;;;9.80;6.07;;;7.30;99.90;;;;;;5024412;28;20661;-82
2021/05/01 01:03:06;;;;;;;10.27;6.63;;;7.20;99.90;;;;;;5011827;28;20194;-78
2021/05/01 01:05:32;;;;;;;8.40;5.70;;;7.10;99.90;;;;;;5027258;28;20584;-81
2021/05/01 01:07:59;;;;;;;12.50;6.90;;;7.10;99.90;;;;;;5027681;28;20199;-84
2021/05/01 01:10:26;;;;;;;8.40;5.60;;;7.10;99.90;;;;;;5027634;28;20509;-79
2021/05/01 01:12:52;;;;;;;7.37;5.33;;;7.10;99.90;;;;;;5027098;28;20206;-76
2021/05/01 01:15:26;;;;;;;11.80;5.70;;;7.00;99.90;;;;;;5026028;28;20667;-77
2021/05/01 01:17:53;;;;;;;11.73;6.53;;;7.00;99.90;;;;;;5025038;28;20599;-77
2021/05/01 01:20:20;;;;;;;8.63;6.23;;;7.00;99.90;;;;;;5045491;28;20213;-76
2021/05/01 01:22:48;;;;;;;9.50;5.67;;;6.90;99.90;;;;;;5045975;28;20614;-77
2021/05/01 01:25:15;;;;;;;8.90;6.00;;;6.90;99.90;;;;;;5054340;28;20218;-78
2021/05/01 01:27:43;;;;;;;11.03;6.17;;;6.90;99.90;;;;;;5049866;28;20213;-79
2021/05/01 01:30:12;;;;;;;10.57;6.47;;;6.80;99.90;;;;;;5040225;28;20206;-77
2021/05/01 01:32:38;;;;;;;10.73;5.90;;;6.80;99.90;;;;;;5035564;28;20306;-77
2021/05/01 01:35:06;;;;;;;9.93;6.47;;;6.80;99.90;;;;;;5026989;28;20202;-77
2021/05/01 01:37:33;;;;;;;9.27;6.93;;;6.80;99.90;;;;;;5025452;28;20203;-80
2021/05/01 01:40:00;;;;;;;9.00;6.40;;;6.70;99.90;;;;;;5026449;28;20496;-79
2021/05/01 01:42:26;;;;;;;9.10;6.13;;;6.70;99.90;;;;;;5025328;28;20209;-77
2021/05/01 01:44:53;;;;;;;13.03;6.73;;;6.70;99.90;;;;;;5025166;28;20237;-80
2021/05/01 01:47:20;;;;;;;10.13;6.77;;;6.70;99.90;;;;;;5025581;28;20238;-78
2021/05/01 01:49:46;;;;;;;8.40;6.73;;;6.70;99.90;;;;;;5026402;28;20274;-76
2021/05/01 01:52:12;;;;;;;9.27;6.33;;;6.70;99.90;;;;;;5025118;28;20199;-78
2021/05/01 01:54:38;;;;;;;10.90;7.17;;;6.60;99.90;;;;;;5025437;28;20214;-86
2021/05/01 01:57:06;;;;;;;8.90;6.17;;;6.70;99.90;;;;;;5028733;28;20773;-87
2021/05/01 01:59:33;;;;;;;9.47;6.20;;;6.70;99.90;;;;;;5029016;28;20195;-77
2021/05/01 02:01:59;;;;;;;7.80;5.60;;;6.70;99.90;;;;;;5028485;28;20272;-86
2021/05/01 02:04:26;;;;;;;11.10;7.00;;;6.70;99.90;;;;;;5026920;28;20305;-79
2021/05/01 02:06:52;;;;;;;9.43;6.40;;;6.70;99.90;;;;;;5026839;28;20226;-86
2021/05/01 02:09:18;;;;;;;7.67;5.57;;;6.70;99.90;;;;;;5027882;28;20264;-76
2021/05/01 02:11:45;;;;;;;7.77;6.17;;;6.60;99.90;;;;;;5027170;28;20264;-76
2021/05/01 02:14:13;;;;;;;7.37;6.23;;;6.60;99.90;;;;;;5028542;28;20252;-78
2021/05/01 02:16:39;;;;;;;8.13;6.67;;;6.60;99.90;;;;;;5030029;28;20202;-85
2021/05/01 02:19:05;;;;;;;9.90;6.73;;;6.60;99.90;;;;;;5029329;28;20514;-79
2021/05/01 02:21:32;;;;;;;8.07;6.30;;;6.70;99.90;;;;;;5028291;28;20195;-85
2021/05/01 02:23:58;;;;;;;9.30;6.00;;;6.70;99.90;;;;;;5028213;28;20572;-75
2021/05/01 02:26:24;;;;;;;10.40;6.40;;;6.70;99.90;;;;;;5028258;28;20202;-77
2021/05/01 02:28:51;;;;;;;7.83;6.37;;;6.80;99.90;;;;;;5027961;28;20206;-77
2021/05/01 02:31:18;;;;;;;8.07;6.47;;;6.80;99.90;;;;;;5028265;28;20239;-76
2021/05/01 02:33:44;;;;;;;9.87;6.20;;;6.70;99.90;;;;;;5027504;28;20222;-75
2021/05/01 02:36:10;;;;;;;8.17;6.60;;;6.70;99.90;;;;;;5028050;28;20233;-76
2021/05/01 02:38:37;;;;;;;8.77;6.33;;;6.70;99.90;;;;;;5026378;28;20203;-78
2021/05/01 02:41:04;;;;;;;8.20;6.50;;;6.70;99.90;;;;;;5028546;28;20199;-78
2021/05/01 02:43:30;;;;;;;7.80;5.40;;;6.60;99.90;;;;;;5028001;28;20314;-79
2021/05/01 02:45:56;;;;;;;8.20;6.30;;;6.60;99.90;;;;;;5027358;28;20246;-78
2021/05/01 02:48:23;;;;;;;13.70;6.47;;;6.50;99.90;;;;;;5028026;28;20214;-80
2021/05/01 02:50:49;;;;;;;8.37;5.80;;;6.50;99.90;;;;;;5027243;28;20202;-78
2021/05/01 02:53:16;;;;;;;7.70;5.60;;;6.40;99.90;;;;;;5027167;28;20206;-76
2021/05/01 02:55:42;;;;;;;10.20;5.53;;;6.40;99.90;;;;;;5026182;28;20225;-77
2021/05/01 02:58:08;;;;;;;6.07;5.40;;;6.30;99.90;;;;;;5027066;28;20200;-76
2021/05/01 03:00:34;;;;;;;7.27;5.77;;;6.20;99.90;;;;;;5026783;28;20199;-81
2021/05/01 03:03:01;;;;;;;5.90;5.13;;;6.20;99.90;;;;;;5027842;28;20206;-78
2021/05/01 03:05:28;;;;;;;6.80;5.13;;;6.10;99.90;;;;;;5026034;28;20234;-79
2021/05/01 03:07:54;;;;;;;7.90;6.57;;;6.10;99.90;;;;;;5028706;28;20238;-79
2021/05/01 03:10:22;;;;;;;6.30;5.67;;;6.00;99.90;;;;;;5026512;28;20210;-79
2021/05/01 03:12:49;;;;;;;6.67;5.40;;;6.00;99.90;;;;;;5029847;28;20602;-85
2021/05/01 03:15:16;;;;;;;7.20;5.20;;;6.00;99.90;;;;;;5032074;28;20199;-87
2021/05/01 03:17:42;;;;;;;7.20;5.63;;;6.00;99.90;;;;;;5034382;28;20502;-84
2021/05/01 03:20:10;;;;;;;8.00;5.27;;;5.90;99.90;;;;;;5051070;28;20210;-77
2021/05/01 03:22:37;;;;;;;6.27;4.63;;;5.90;99.90;;;;;;5049868;28;20201;-77
2021/05/01 03:25:05;;;;;;;6.33;4.43;;;5.90;99.90;;;;;;5046665;28;20577;-77
2021/05/01 03:27:31;;;;;;;7.43;4.80;;;5.90;99.90;;;;;;5046936;28;20199;-82
2021/05/01 03:29:57;;;;;;;6.87;3.83;;;5.90;99.90;;;;;;5049490;28;20206;-87
2021/05/01 03:32:24;;;;;;;5.03;3.83;;;6.00;99.90;;;;;;5030772;28;20194;-86
2021/05/01 03:34:50;;;;;;;4.87;3.70;;;5.90;99.90;;;;;;5029668;28;20198;-86
2021/05/01 03:37:16;;;;;;;5.17;3.90;;;5.90;99.90;;;;;;5029683;28;20213;-83
2021/05/01 03:39:44;;;;;;;5.67;4.13;;;5.90;99.90;;;;;;5027257;28;20689;-86
2021/05/01 03:42:10;;;;;;;5.33;3.50;;;6.00;99.90;;;;;;5026781;28;20881;-85
2021/05/01 03:44:36;;;;;;;6.97;3.27;;;6.00;99.90;;;;;;5028516;28;20222;-87
2021/05/01 03:47:03;;;;;;;5.63;3.43;;;6.10;99.90;;;;;;5029663;28;20633;-85
2021/05/01 03:49:29;;;;;;;4.17;2.83;;;6.10;99.90;;;;;;5030256;28;20904;-78
2021/05/01 03:51:55;;;;;;;6.67;3.40;;;6.10;99.90;;;;;;5029476;28;20607;-77
2021/05/01 03:54:22;;;;;;;4.57;3.37;;;6.10;99.90;;;;;;5029552;28;20205;-86
2021/05/01 03:56:49;;;;;;;5.50;3.70;;;6.20;99.90;;;;;;5029538;28;20205;-78
2021/05/01 03:59:15;;;;;;;7.23;3.90;;;6.20;99.90;;;;;;5029280;28;20199;-86
2021/05/01 04:01:42;;;;;;;4.00;3.50;;;6.20;99.90;;;;;;5029269;28;20201;-85
2021/05/01 04:04:09;;;;;;;4.30;3.60;;;6.20;99.90;;;;;;5028896;28;20418;-84
2021/05/01 04:06:36;;;;;;;4.90;3.90;;;6.20;99.90;;;;;;5028337;28;20222;-86
2021/05/01 04:09:03;;;;;;;7.40;3.80;;;6.20;99.90;;;;;;5029099;28;20206;-86
2021/05/01 04:11:29;;;;;;;5.80;4.40;;;6.30;99.90;;;;;;5028575;28;20199;-77
2021/05/01 04:13:56;;;;;;;5.80;3.93;;;6.20;99.90;;;;;;5036201;28;20213;-86
2021/05/01 04:16:23;;;;;;;4.90;4.00;;;6.20;99.90;;;;;;5049124;28;20506;-84
2021/05/01 04:18:50;;;;;;;5.23;3.73;;;6.30;99.90;;;;;;5039557;28;20217;-77
2021/05/01 04:21:16;;;;;;;7.03;4.07;;;6.30;99.90;;;;;;5028913;28;20207;-83
2021/05/01 04:23:43;;;;;;;4.13;3.60;;;6.30;99.90;;;;;;5028727;28;20894;-83
2021/05/01 04:26:10;;;;;;;10.80;5.60;;;6.40;99.90;;;;;;5028286;28;20226;-85
2021/05/01 04:28:36;;;;;;;7.47;6.07;;;6.40;99.90;;;;;;5026157;28;20607;-78
2021/05/01 04:31:04;;;;;;;9.43;5.90;;;6.50;99.90;;;;;;5029708;28;20268;-83
2021/05/01 04:33:30;;;;;;;9.93;5.53;;;6.50;99.90;;;;;;5028743;28;20233;-86
2021/05/01 04:35:57;;;;;;;7.60;4.30;;;6.50;99.90;;;;;;5029274;28;20203;-86
2021/05/01 04:38:25;;;;;;;5.27;4.50;;;6.60;99.90;;;;;;5029453;28;20215;-77
2021/05/01 04:40:52;;;;;;;7.33;4.77;;;6.70;99.90;;;;;;5028957;28;20207;-79
2021/05/01 04:43:22;;;;;;;9.83;5.73;;;6.90;99.90;;;;;;5027359;28;20293;-81
2021/05/01 04:45:48;;;;;;;10.03;5.30;;;6.90;99.90;;;;;;5028379;28;20242;-79
2021/05/01 04:48:15;;;;;;;6.60;4.93;;;7.00;99.90;;;;;;5026696;28;20206;-87
2021/05/01 04:50:42;;;;;;;9.30;5.23;;;7.10;99.90;;;;;;5027806;28;20291;-82
2021/05/01 04:53:08;;;;;;;5.00;3.53;;;7.20;99.90;;;;;;5027580;28;20318;-82
2021/05/01 04:55:35;;;;;;;4.40;3.67;;;7.30;99.90;;;;;;5025646;28;20206;-82
2021/05/01 04:58:01;;;;;;;6.20;3.97;;;7.40;99.90;;;;;;5025269;28;20276;-76
2021/05/01 05:00:27;;;;;;;7.50;3.97;;;7.50;99.90;;;;;;5025191;28;20207;-77
2021/05/01 05:02:54;;;;;;;6.37;4.30;;;7.50;99.90;;;;;;5026374;28;20206;-78
2021/05/01 05:05:21;;;;;;;9.00;3.70;;;7.60;99.90;;;;;;5025307;28;20235;-77
2021/05/01 05:07:47;;;;;;;5.07;4.03;;;7.60;99.90;;;;;;5026274;28;20214;-80
2021/05/01 05:10:15;;;;;;;6.10;3.80;;;7.70;99.90;;;;;;5026778;28;20203;-85
2021/05/01 05:12:42;;;;;;;5.07;3.90;;;7.80;99.90;;;;;;5026264;28;20646;-80
2021/05/01 05:15:10;;;;;;;7.80;4.23;;;7.80;99.90;;;;;;5027206;28;20315;-77
2021/05/01 05:17:36;;;;;;;6.00;4.00;;;7.80;99.90;;;;;;5026192;28;20206;-81
2021/05/01 05:20:03;;;;;;;5.50;4.37;;;7.90;99.90;;;;;;5027281;28;20191;-78
2021/05/01 05:22:31;;;;;;;6.40;3.90;;;8.00;99.90;;;;;;5041176;22;20315;-75
2021/05/01 05:24:57;;;;;;;5.33;3.93;;;8.00;99.90;;;;;;5045789;28;20825;-77
2021/05/01 05:27:24;;;;;;;5.47;4.67;;;8.10;99.90;;;;;;5029751;28;20206;-82
2021/05/01 05:29:50;;;;;;;7.83;4.73;;;8.10;99.90;;;;;;5026149;28;20230;-81
2021/05/01 05:32:18;;;;;;;5.77;4.63;;;8.10;99.90;;;;;;5025334;28;20224;-78
2021/05/01 05:34:45;;;;;;;9.60;5.03;;;8.10;99.90;;;;;;5025458;28;20261;-84
2021/05/01 05:37:11;;;;;;;7.53;5.37;;;8.20;99.90;;;;;;5025322;28;20214;-84
2021/05/01 05:39:39;;;;;;;10.13;5.53;;;8.20;99.90;;;;;;5023149;28;20210;-78
2021/05/01 05:42:06;;;;;;;8.10;5.67;;;8.20;99.90;;;;;;5023995;28;20210;-77
2021/05/01 05:44:33;;;;;;;11.47;5.83;;;8.30;99.90;;;;;;5023148;28;20225;-76
2021/05/01 05:46:59;;;;;;;11.67;7.23;;;8.30;99.90;;;;;;5025220;28;20230;-86
2021/05/01 05:49:26;;;;;;;9.67;5.50;;;8.30;99.90;;;;;;5031699;28;20194;-78
2021/05/01 05:51:52;;;;;;;8.93;4.77;;;8.30;99.90;;;;;;5032388;28;20205;-77
2021/05/01 05:54:19;;;;;;;8.03;5.23;;;8.40;99.90;;;;;;5032886;28;20203;-86
2021/05/01 05:56:46;;;;;;;7.77;5.60;;;8.40;99.90;;;;;;5030747;28;20199;-85
2021/05/01 05:59:12;;;;;;;9.67;5.77;;;8.40;99.90;;;;;;5030602;28;20202;-78
2021/05/01 06:01:40;;;;;;;7.80;4.73;;;8.40;99.90;;;;;;5043911;28;20210;-86
2021/05/01 06:04:09;;;;;;;9.43;6.10;;;8.40;99.90;;;;;;5050509;28;20201;-76
2021/05/01 06:06:42;;;;;;;11.90;6.80;;;8.40;99.90;;;;;;5028634;28;20234;-82
2021/05/01 06:09:08;;;;;;;8.63;5.07;;;8.40;99.90;;;;;;5028981;28;20226;-79
2021/05/01 06:11:35;;;;;;;10.10;6.10;;;8.40;99.90;;;;;;5027956;28;20832;-80
2021/05/01 06:14:04;;;;;;;19.47;6.47;;;8.50;99.90;;;;;;5028201;28;20221;-78
2021/05/01 06:16:32;;;;;;;5.63;4.43;;;8.70;99.90;;;;;;5027654;28;20202;-82
2021/05/01 06:18:59;;;;;;;9.13;4.87;;;8.90;99.90;;;;;;5027080;28;20206;-77
2021/05/01 06:21:26;;;;;;;11.33;5.30;;;9.10;99.90;;;;;;5027289;28;20862;-80
2021/05/01 06:23:52;;;;;;;7.47;4.90;;;9.30;99.90;;;;;;5045451;28;20237;-79
2021/05/01 06:26:19;;;;;;;12.03;4.70;;;9.60;99.90;;;;;;5048280;28;20225;-78
2021/05/01 06:28:46;;;;;;;8.20;5.60;;;9.90;99.90;;;;;;5048621;28;20210;-79
2021/05/01 06:31:13;;;;;;;13.00;6.03;;;10.20;99.90;;;;;;5047670;28;20501;-79
2021/05/01 06:33:40;;;;;;;9.33;5.50;;;10.40;99.90;;;;;;5046030;28;20225;-80
2021/05/01 06:36:09;;;;;;;6.70;4.60;;;10.40;99.90;;;;;;5047297;28;20724;-86
2021/05/01 06:38:35;;;;;;;4.83;3.70;;;10.40;99.90;;;;;;5047297;28;20238;-80
2021/05/01 06:41:07;;;;;;;10.30;3.87;;;10.10;99.90;;;;;;5046137;28;20206;-76
2021/05/01 06:43:47;;;;;;;4.97;2.97;;;9.70;99.90;;;;;;5045981;28;20351;-77
2021/05/01 06:46:18;;;;;;;3.23;2.93;;;9.40;99.90;;;;;;5046697;28;20233;-78
2021/05/01 06:48:50;;;;;;;4.00;3.00;;;9.10;99.90;;;;;;5046955;28;20242;-78
2021/05/01 06:51:17;;;;;;;5.60;3.43;;;8.90;99.90;;;;;;5047882;28;20194;-78
2021/05/01 06:53:43;;;;;;;3.80;2.90;;;8.80;99.90;;;;;;5066199;28;20217;-84
2021/05/01 06:56:14;;;;;;;5.67;3.50;;;8.70;99.90;;;;;;5066666;28;20312;-86
2021/05/01 06:58:42;;;;;;;6.53;3.50;;;8.60;99.90;;;;;;5066762;28;20558;-79
2021/05/01 07:01:09;;;;;;;5.67;3.57;;;8.60;99.90;;;;;;5059304;28;20197;-81
2021/05/01 07:03:41;;;;;;;4.27;3.43;;;8.50;99.90;;;;;;5046265;28;20570;-80
2021/05/01 07:06:07;;;;;;;4.57;3.43;;;8.60;99.90;;;;;;5051349;28;20618;-84
2021/05/01 07:08:34;;;;;;;3.60;3.03;;;8.60;99.90;;;;;;5048250;28;20424;-80
2021/05/01 07:11:01;;;;;;;3.93;3.40;;;8.60;99.90;;;;;;5049251;28;20206;-85
2021/05/01 07:13:28;;;;;;;9.33;4.53;;;8.60;99.90;;;;;;5050585;28;20220;-86
2021/05/01 07:16:00;;;;;;;5.03;3.60;;;8.60;99.90;;;;;;5049902;28;20212;-78
2021/05/01 07:18:27;;;;;;;6.47;3.47;;;8.70;99.90;;;;;;5047240;28;20342;-84
2021/05/01 07:20:57;;;;;;;6.47;3.93;;;8.80;99.90;;;;;;5056409;28;20570;-83
2021/05/01 07:23:23;;;;;;;5.23;3.37;;;8.90;99.90;;;;;;5065756;28;20283;-80
2021/05/01 07:25:49;;;;;;;8.17;4.03;;;8.90;99.90;;;;;;5065907;28;20396;-78
2021/05/01 07:28:20;;;;;;;3.50;3.20;;;8.90;99.90;;;;;;5065430;28;20209;-78
2021/05/01 07:30:48;;;;;;;3.50;3.00;;;9.00;99.90;;;;;;5065789;28;20209;-79
2021/05/01 07:33:23;;;;;;;4.40;4.00;;;9.00;99.90;;;;;;5066306;28;20498;-80
2021/05/01 07:35:53;;;;;;;6.00;4.20;;;9.00;99.90;;;;;;5049409;28;20217;-75
2021/05/01 07:38:23;;;;;;;10.43;4.80;;;9.10;99.90;;;;;;5044160;28;20214;-76
2021/05/01 07:40:51;;;;;;;8.17;5.57;;;9.10;99.90;;;;;;5044408;28;20198;-75
2021/05/01 07:43:51;;;;;;;5.67;5.10;;;9.20;99.90;;;;;;5037008;28;20519;-85
2021/05/01 07:46:21;;;;;;;5.77;4.40;;;9.30;99.90;;;;;;5045634;28;20226;-77
2021/05/01 07:48:48;;;;;;;7.97;5.10;;;9.30;99.90;;;;;;5045536;28;20658;-75
2021/05/01 07:51:15;;;;;;;5.50;4.80;;;9.40;99.90;;;;;;5043963;28;20202;-80
2021/05/01 07:53:44;;;;;;;7.67;4.90;;;9.40;99.90;;;;;;5044810;28;20202;-75
2021/05/01 07:56:10;;;;;;;6.10;4.23;;;9.50;99.90;;;;;;5044254;28;20256;-76
2021/05/01 07:58:37;;;;;;;6.33;4.60;;;9.60;99.90;;;;;;5043037;28;20700;-76
2021/05/01 08:01:03;;;;;;;6.10;4.37;;;9.70;99.90;;;;;;5038817;28;20229;-78
2021/05/01 08:03:30;;;;;;;6.27;4.70;;;9.70;99.90;;;;;;5043875;28;20210;-76
2021/05/01 08:05:57;;;;;;;6.93;5.33;;;9.80;99.90;;;;;;5043886;28;20235;-76
2021/05/01 08:08:23;;;;;;;7.30;4.97;;;9.80;99.90;;;;;;5043835;28;20201;-75
2021/05/01 08:10:50;;;;;;;7.03;5.03;;;10.00;99.90;;;;;;5043528;28;20412;-76
2021/05/01 08:13:17;;;;;;;6.10;4.63;;;10.20;99.90;;;;;;5049460;28;20496;-77
2021/05/01 08:15:43;;;;;;;6.60;4.40;;;10.60;99.90;;;;;;5063724;28;20202;-75
2021/05/01 08:18:10;;;;;;;5.60;4.30;;;11.00;99.90;;;;;;5064090;28;20606;-78
2021/05/01 08:20:37;;;;;;;6.00;4.77;;;11.30;99.90;;;;;;5063366;28;20304;-78
2021/05/01 08:23:04;;;;;;;4.93;4.43;;;11.60;99.90;;;;;;5023980;28;630813;-80
2021/05/01 08:25:31;;;;;;;4.33;3.93;;;11.70;99.90;;;;;;5049032;28;20233;-83
2021/05/01 08:27:58;;;;;;;5.80;4.73;;;11.90;99.90;;;;;;5047420;28;20193;-79
2021/05/01 08:30:24;;;;;;;5.63;4.50;;;12.00;99.90;;;;;;5048550;28;20213;-84
2021/05/01 08:32:51;;;;;;;5.13;4.67;;;12.00;99.90;;;;;;5066832;28;20602;-79
2021/05/01 08:35:18;;;;;;;8.97;4.87;;;12.10;99.90;;;;;;5066412;28;20204;-80
2021/05/01 08:37:45;;;;;;;5.13;4.63;;;12.30;99.90;;;;;;5065195;28;20525;-79
2021/05/01 08:40:13;;;;;;;7.17;5.53;;;12.70;99.90;;;;;;5065671;28;20255;-81
2021/05/01 08:42:42;;;;;;;5.17;4.57;;;13.00;99.90;;;;;;5067102;28;20201;-75
2021/05/01 08:45:11;;;;;;;6.93;5.43;;;13.10;99.90;;;;;;5064626;28;20232;-80
2021/05/01 08:47:42;;;;;;;9.00;5.83;;;13.30;99.90;;;;;;5045906;28;20718;-82
2021/05/01 08:50:25;;;;;;;6.17;5.57;;;13.30;99.90;;;;;;5047468;28;20216;-83
2021/05/01 08:52:51;;;;;;;6.97;5.10;;;13.50;99.90;;;;;;5047009;28;20202;-80
2021/05/01 08:55:18;;;;;;;9.27;5.30;;;13.50;99.90;;;;;;5045161;28;20206;-80
2021/05/01 08:57:45;;;;;;;7.17;5.80;;;13.50;99.90;;;;;;5046095;28;20708;-79
2021/05/01 09:00:13;;;;;;;7.50;5.03;;;13.20;99.90;;;;;;5052721;28;20883;-82
2021/05/01 09:02:41;;;;;;;7.13;5.33;;;12.80;99.90;;;;;;5064187;28;20205;-79
2021/05/01 09:05:09;;;;;;;7.23;5.73;;;12.60;99.90;;;;;;5063684;28;20287;-80
2021/05/01 09:07:38;;;;;;;8.17;5.70;;;12.30;99.90;;;;;;5063341;28;20201;-80
2021/05/01 09:10:07;;;;;;;5.83;4.80;;;12.20;99.90;;;;;;5064303;28;20201;-80
2021/05/01 09:12:36;;;;;;;6.43;5.07;;;12.10;99.90;;;;;;5063710;28;20266;-81
2021/05/01 09:15:05;;;;;;;6.33;4.30;;;12.00;99.90;;;;;;5049995;28;20210;-80
2021/05/01 09:17:33;;;;;;;5.43;4.90;;;11.90;99.90;;;;;;5043725;28;20521;-81
2021/05/01 09:20:05;;;;;;;7.17;4.60;;;11.90;99.90;;;;;;5044903;28;20266;-81
2021/05/01 09:22:32;;;;;;;6.50;4.40;;;12.00;99.90;;;;;;5045077;28;20265;-80
2021/05/01 09:25:07;;;;;;;6.37;5.20;;;12.10;99.90;;;;;;5044898;28;20225;-78
2021/05/01 09:27:34;;;;;;;5.73;4.57;;;11.90;99.90;;;;;;5044320;28;20528;-81
2021/05/01 09:30:12;;;;;;;5.60;5.00;;;11.90;99.90;;;;;;5043114;28;20213;-79
2021/05/01 09:32:40;;;;;;;6.90;5.47;;;12.20;99.90;;;;;;5043560;28;20251;-83
2021/05/01 09:35:07;;;;;;;6.90;4.87;;;12.50;99.90;;;;;;5045428;28;20202;-79
2021/05/01 09:37:35;;;;;;;8.07;5.93;;;12.50;99.90;;;;;;5044386;28;20212;-81
2021/05/01 09:40:01;;;;;;;6.00;4.70;;;12.60;99.90;;;;;;5045019;28;20209;-83
2021/05/01 09:42:30;;;;;;;5.70;5.10;;;12.80;99.90;;;;;;5044161;28;20213;-85
2021/05/01 09:45:10;;;;;;;8.13;4.57;;;13.00;99.90;;;;;;5044288;28;20317;-80
2021/05/01 09:47:36;;;;;;;5.30;4.80;;;13.20;99.90;;;;;;5045500;28;20614;-81
2021/05/01 09:50:20;;;;;;;5.53;4.90;;;13.30;99.90;;;;;;5046152;28;20209;-83
2021/05/01 09:53:00;;;;;;;6.23;4.40;;;13.30;99.90;;;;;;5046346;28;20388;-82
2021/05/01 09:55:50;;;;;;;5.20;4.40;;;13.50;99.90;;;;;;5044470;28;20503;-81
2021/05/01 09:58:19;;;;;;;5.50;4.93;;;13.70;99.90;;;;;;5043322;28;20202;-82
2021/05/01 10:00:47;;;;;;;6.47;5.07;;;13.70;99.90;;;;;;5045061;28;20197;-79
2021/05/01 10:03:27;;;;;;;4.80;3.83;;;13.70;99.90;;;;;;5044384;28;20225;-79
2021/05/01 10:06:00;;;;;;;6.37;3.90;;;13.50;99.90;;;;;;5045226;28;20225;-80
2021/05/01 10:08:30;;;;;;;5.70;3.97;;;13.30;99.90;;;;;;5043609;28;20729;-79
2021/05/01 10:10:57;;;;;;;7.97;4.70;;;13.00;99.90;;;;;;5043239;28;20908;-79
2021/05/01 10:13:24;;;;;;;4.97;4.07;;;13.10;99.90;;;;;;5044451;28;20198;-81
2021/05/01 10:15:53;;;;;;;6.60;3.97;;;13.10;99.90;;;;;;5047390;28;20644;-78
2021/05/01 10:18:20;;;;;;;5.37;3.80;;;13.00;99.90;;;;;;5065347;28;20259;-84
2021/05/01 10:20:48;;;;;;;4.37;3.40;;;12.90;99.90;;;;;;5064811;28;20206;-80
2021/05/01 10:23:18;;;;;;;4.90;3.57;;;12.90;99.90;;;;;;5064891;28;20244;-81
2021/05/01 10:25:46;;;;;;;4.20;3.10;;;13.20;99.90;;;;;;5049904;28;20249;-82
2021/05/01 10:28:15;;;;;;;6.27;3.70;;;13.40;99.90;;;;;;5045447;28;20324;-80
2021/05/01 10:30:44;;;;;;;7.43;3.50;;;13.60;99.90;;;;;;5045107;28;20221;-81
2021/05/01 10:33:23;;;;;;;5.93;3.43;;;13.50;99.90;;;;;;5044783;28;20205;-81
2021/05/01 10:35:54;;;;;;;4.87;3.30;;;13.60;99.90;;;;;;5047763;28;20650;-81
2021/05/01 10:38:23;;;;;;;4.27;3.07;;;13.90;99.90;;;;;;5047603;28;20206;-78
2021/05/01 10:40:51;;;;;;;3.30;2.87;;;14.00;99.90;;;;;;5046340;28;20213;-79
2021/05/01 10:43:20;;;;;;;3.80;3.03;;;14.20;99.90;;;;;;5045998;28;20884;-78
2021/05/01 10:45:52;;;;;;;5.03;2.77;;;14.20;99.90;;;;;;5046477;28;20279;-81
2021/05/01 10:48:19;;;;;;;4.17;2.97;;;14.00;99.90;;;;;;5045687;28;20619;-78
2021/05/01 10:50:46;;;;;;;5.33;3.23;;;14.20;99.90;;;;;;5046710;28;20209;-76
2021/05/01 10:53:20;;;;;;;3.47;2.77;;;14.10;99.90;;;;;;5046792;28;20216;-80
2021/05/01 10:55:50;;;;;;;2.83;2.40;;;13.90;99.90;;;;;;5050919;28;20247;-82
2021/05/01 10:58:33;;;;;;;4.77;2.90;;;13.80;99.90;;;;;;5049626;28;20209;-79
2021/05/01 11:01:00;;;;;;;4.40;2.73;;;13.50;99.90;;;;;;5066907;28;20358;-80
2021/05/01 11:03:27;;;;;;;3.67;2.40;;;13.50;99.90;;;;;;5070036;28;20212;-81
2021/05/01 11:05:57;;;;;;;3.23;2.70;;;13.70;99.90;;;;;;5069580;28;20229;-82
2021/05/01 11:08:33;;;;;;;2.50;2.27;;;13.70;99.90;;;;;;5070598;28;20742;-79
2021/05/01 11:11:02;;;;;;;3.30;2.50;;;13.80;99.90;;;;;;5060912;28;20606;-81
2021/05/01 11:13:31;;;;;;;2.50;2.27;;;13.70;99.90;;;;;;5046537;28;20197;-80
2021/05/01 11:15:59;;;;;;;4.67;2.73;;;13.70;99.90;;;;;;5047757;28;20208;-80
2021/05/01 11:18:27;;;;;;;4.00;3.13;;;13.50;99.90;;;;;;5048546;28;20759;-81
2021/05/01 11:20:59;;;;;;;6.30;2.77;;;13.50;99.90;;;;;;5047274;28;20197;-77
2021/05/01 11:23:27;;;;;;;5.97;2.77;;;13.40;99.90;;;;;;5045777;28;20584;-76
2021/05/01 11:25:56;;;;;;;3.67;2.77;;;13.20;99.90;;;;;;5046081;28;20253;-78
2021/05/01 11:28:24;;;;;;;4.47;3.03;;;13.30;99.90;;;;;;5047453;28;20293;-76
2021/05/01 11:30:52;;;;;;;3.57;3.07;;;13.40;99.90;;;;;;5046086;28;20202;-75
2021/05/01 11:33:20;;;;;;;2.97;2.67;;;13.50;99.90;;;;;;5046436;28;20633;-77
2021/05/01 11:35:49;;;;;;;5.70;3.37;;;13.30;99.90;;;;;;5045810;28;20649;-77
2021/05/01 11:38:24;;;;;;;5.63;3.17;;;13.20;99.90;;;;;;5045734;28;20228;-79
2021/05/01 11:40:55;;;;;;;5.47;2.50;;;13.20;99.90;;;;;;5045933;28;20222;-78
2021/05/01 11:43:27;;;;;;;4.90;2.70;;;13.00;99.90;;;;;;5046501;28;20233;-83
2021/05/01 11:46:12;;;;;;;3.53;2.60;;;13.20;99.90;;;;;;5045053;28;20637;-81
2021/05/01 11:48:46;;;;;;;5.03;2.00;;;13.00;99.90;;;;;;5046273;28;20205;-81
2021/05/01 11:51:17;;;;;;;3.33;2.10;;;13.30;99.90;;;;;;5045467;28;20198;-82
2021/05/01 11:53:46;;;;;;;3.43;2.17;;;13.70;99.90;;;;;;5044678;28;20241;-80
2021/05/01 11:56:29;;;;;;;4.10;2.37;;;14.10;99.90;;;;;;5045712;28;20204;-80
2021/05/01 11:59:20;;;;;;;3.03;2.10;;;14.40;99.90;;;;;;5044870;28;20253;-78
2021/05/01 12:01:58;;;;;;;3.67;1.97;;;14.60;99.90;;;;;;5029983;28;20206;-80
2021/05/01 12:04:43;;;;;;;2.80;2.10;;;14.60;99.90;;;;;;5044771;28;20197;-77
2021/05/01 12:07:13;;;;;;;3.33;1.80;;;14.50;99.90;;;;;;5044681;28;20226;-76
2021/05/01 12:09:42;;;;;;;4.07;2.23;;;14.40;99.90;;;;;;5045161;28;20198;-77
2021/05/01 12:12:10;;;;;;;3.80;2.17;;;14.20;99.90;;;;;;5045202;28;20214;-77
2021/05/01 12:14:38;;;;;;;2.87;2.20;;;14.00;99.90;;;;;;5045440;28;20302;-80
2021/05/01 12:17:13;;;;;;;3.37;2.00;;;13.90;99.90;;;;;;5044650;28;20206;-75
2021/05/01 12:19:43;;;;;;;2.90;2.30;;;14.20;99.90;;;;;;5043188;28;20221;-76
2021/05/01 12:22:23;;;;;;;3.60;2.00;;;14.30;99.90;;;;;;5044042;28;20238;-77
2021/05/01 12:24:49;;;;;;;2.83;1.97;;;14.30;99.90;;;;;;5043713;28;20197;-77
2021/05/01 12:27:49;;;;;;;3.50;2.17;;;14.00;99.90;;;;;;5043299;28;20754;-75
2021/05/01 12:30:48;;;;;;;2.87;2.17;;;13.90;99.90;;;;;;5043832;28;20229;-77
2021/05/01 12:33:40;;;;;;;2.20;2.00;;;13.70;99.90;;;;;;5043081;28;20206;-75
2021/05/01 12:36:08;;;;;;;2.90;1.70;;;13.60;99.90;;;;;;5031491;28;20197;-77
2021/05/01 12:38:35;;;;;;;2.20;1.83;;;13.40;99.90;;;;;;5043180;28;20210;-79
2021/05/01 12:41:20;;;;;;;2.87;1.90;;;13.10;99.90;;;;;;5043767;28;20666;-77
2021/05/01 12:43:48;;;;;;;3.50;1.80;;;12.80;99.90;;;;;;5043381;28;20213;-76
2021/05/01 12:46:17;;;;;;;3.03;1.90;;;12.70;99.90;;;;;;5042623;28;20256;-76
2021/05/01 12:48:47;;;;;;;2.53;1.80;;;12.50;99.90;;;;;;5043239;28;20205;-77
2021/05/01 12:51:15;;;;;;;4.90;1.60;;;12.50;99.90;;;;;;5044093;28;20199;-78
2021/05/01 12:53:42;;;;;;;2.13;1.23;;;12.30;99.90;;;;;;5043364;28;20202;-77
2021/05/01 12:56:22;;;;;;;2.90;1.80;;;12.30;99.90;;;;;;5043203;28;20208;-77
2021/05/01 12:58:49;;;;;;;3.30;1.77;;;12.50;99.90;;;;;;5042809;28;20211;-77
2021/05/01 13:01:25;;;;;;;2.10;1.80;;;12.60;99.90;;;;;;5042518;28;20256;-76